sensor_id;sensor_type;location;lat;lon;timestamp;pressure;altitude;pressure_sealevel;temperature;humidity
11643;BME280;5877;50.930;6.918;2023-03-03T00:01:03;101514.34;;;0.54;78.35
11643;BME280;5877;50.930;6.918;2023-03-03T00:05:55;101627.06;;;1.08;79.23
11643;BME280;5877;50.930;6.918;2023-03-03T00:10:48;101627.31;;;1.05;79.27
11643;BME280;5877;50.930;6.918;2023-03-03T00:15:41;101475.06;;;0.08;78.72
11643;BME280;5877;50.930;6.918;2023-03-03T00:20:38;101487.03;;;0.09;78.68
11643;BME280;5877;50.930;6.918;2023-03-03T00:25:32;101543.91;;;0.18;79.57
11643;BME280;5877;50.930;6.918;2023-03-03T00:30:26;101257.72;;;-1.67;79.54
11643;BME280;5877;50.930;6.918;2023-03-03T00:40:26;101456.47;;;-0.50;79.89
11643;BME280;5877;50.930;6.918;2023-03-03T00:45:23;101632.78;;;0.59;80.86
11643;BME280;5877;50.930;6.918;2023-03-03T00:50:32;101576.91;;;0.04;80.81
11643;BME280;5877;50.930;6.918;2023-03-03T00:55:24;101421.81;;;-0.91;81.00
11643;BME280;5877;50.930;6.918;2023-03-03T01:00:16;101648.09;;;0.40;80.82
11643;BME280;5877;50.930;6.918;2023-03-03T01:05:12;101598.38;;;0.04;81.24
11643;BME280;5877;50.930;6.918;2023-03-03T01:10:04;101593.13;;;-0.06;81.11
11643;BME280;5877;50.930;6.918;2023-03-03T01:14:58;101571.09;;;-0.21;81.39
11643;BME280;5877;50.930;6.918;2023-03-03T01:19:49;101653.97;;;0.19;82.00
11643;BME280;5877;50.930;6.918;2023-03-03T01:24:41;101363.34;;;-1.57;81.32
11643;BME280;5877;50.930;6.918;2023-03-03T01:29:34;101577.78;;;-0.41;81.41
11643;BME280;5877;50.930;6.918;2023-03-03T01:34:27;101633.84;;;-0.09;82.00
11643;BME280;5877;50.930;6.918;2023-03-03T01:39:19;101657.72;;;0.04;81.71
11643;BME280;5877;50.930;6.918;2023-03-03T01:44:13;101657.41;;;-0.03;82.22
11643;BME280;5877;50.930;6.918;2023-03-03T01:49:29;101667.38;;;-0.09;82.38
11643;BME280;5877;50.930;6.918;2023-03-03T01:54:29;101485.00;;;-1.20;82.56
11643;BME280;5877;50.930;6.918;2023-03-03T01:59:25;101505.75;;;-1.11;82.36
11643;BME280;5877;50.930;6.918;2023-03-03T02:04:18;101588.66;;;-0.71;82.94
11643;BME280;5877;50.930;6.918;2023-03-03T02:14:24;101583.56;;;-0.83;83.33
11643;BME280;5877;50.930;6.918;2023-03-03T02:29:30;101515.50;;;-1.38;83.03
11643;BME280;5877;50.930;6.918;2023-03-03T02:34:22;101548.47;;;-1.19;83.74
11643;BME280;5877;50.930;6.918;2023-03-03T02:39:24;101665.56;;;-0.53;83.48
11643;BME280;5877;50.930;6.918;2023-03-03T02:44:22;101557.34;;;-1.23;83.97
11643;BME280;5877;50.930;6.918;2023-03-03T02:49:17;101623.13;;;-0.95;84.33
11643;BME280;5877;50.930;6.918;2023-03-03T02:54:12;101617.16;;;-0.96;84.08
11643;BME280;5877;50.930;6.918;2023-03-03T02:59:05;101520.47;;;-1.59;84.05
11643;BME280;5877;50.930;6.918;2023-03-03T03:04:14;101452.09;;;-1.98;84.59
11643;BME280;5877;50.930;6.918;2023-03-03T03:09:10;101682.47;;;-0.27;85.04
11643;BME280;5877;50.930;6.918;2023-03-03T03:14:04;101478.31;;;-1.34;84.24
11643;BME280;5877;50.930;6.918;2023-03-03T03:18:58;101455.03;;;-1.33;82.65
11643;BME280;5877;50.930;6.918;2023-03-03T03:23:51;101693.97;;;0.25;82.64
11643;BME280;5877;50.930;6.918;2023-03-03T03:28:44;101484.34;;;-0.89;81.17
11643;BME280;5877;50.930;6.918;2023-03-03T03:33:36;101515.88;;;-0.63;80.60
11643;BME280;5877;50.930;6.918;2023-03-03T03:38:29;101662.88;;;0.38;81.09
11643;BME280;5877;50.930;6.918;2023-03-03T03:43:22;101447.09;;;-1.07;80.36
11643;BME280;5877;50.930;6.918;2023-03-03T03:48:14;101657.84;;;0.14;80.67
11643;BME280;5877;50.930;6.918;2023-03-03T03:53:09;101718.25;;;0.56;80.63
11643;BME280;5877;50.930;6.918;2023-03-03T03:58:01;101526.19;;;-0.41;79.59
11643;BME280;5877;50.930;6.918;2023-03-03T04:02:53;101383.50;;;-1.40;79.53
11643;BME280;5877;50.930;6.918;2023-03-03T04:07:46;101664.50;;;0.50;79.18
11643;BME280;5877;50.930;6.918;2023-03-03T04:12:40;101709.78;;;0.76;78.72
11643;BME280;5877;50.930;6.918;2023-03-03T04:17:36;101477.00;;;-0.71;78.89
11643;BME280;5877;50.930;6.918;2023-03-03T04:22:29;101503.81;;;-0.40;78.60
11643;BME280;5877;50.930;6.918;2023-03-03T04:27:26;101606.66;;;0.30;78.17
11643;BME280;5877;50.930;6.918;2023-03-03T04:32:18;101695.56;;;0.71;77.48
11643;BME280;5877;50.930;6.918;2023-03-03T04:37:11;101495.50;;;-0.66;78.62
11643;BME280;5877;50.930;6.918;2023-03-03T04:42:03;101719.97;;;0.89;78.67
11643;BME280;5877;50.930;6.918;2023-03-03T04:46:55;101721.69;;;1.00;78.67
11643;BME280;5877;50.930;6.918;2023-03-03T04:51:46;101422.16;;;-0.95;77.73
11643;BME280;5877;50.930;6.918;2023-03-03T04:56:39;101728.34;;;1.13;77.44
11643;BME280;5877;50.930;6.918;2023-03-03T05:01:31;101466.22;;;-0.65;76.89
11643;BME280;5877;50.930;6.918;2023-03-03T05:06:24;101735.41;;;1.11;76.82
11643;BME280;5877;50.930;6.918;2023-03-03T05:11:16;101324.03;;;-1.48;76.76
11643;BME280;5877;50.930;6.918;2023-03-03T05:16:07;101630.25;;;0.37;76.70
11643;BME280;5877;50.930;6.918;2023-03-03T05:21:00;101753.75;;;1.08;76.95
11643;BME280;5877;50.930;6.918;2023-03-03T05:25:51;101525.63;;;-0.44;76.41
11643;BME280;5877;50.930;6.918;2023-03-03T05:30:43;101628.38;;;0.27;77.31
11643;BME280;5877;50.930;6.918;2023-03-03T05:35:35;101763.97;;;1.10;77.21
11643;BME280;5877;50.930;6.918;2023-03-03T05:40:27;101419.22;;;-1.13;76.35
11643;BME280;5877;50.930;6.918;2023-03-03T05:45:19;101469.00;;;-0.90;76.72
11643;BME280;5877;50.930;6.918;2023-03-03T05:50:11;101760.34;;;1.01;76.06
11643;BME280;5877;50.930;6.918;2023-03-03T05:55:04;101776.47;;;0.93;77.00
11643;BME280;5877;50.930;6.918;2023-03-03T05:59:56;101484.00;;;-0.73;76.40
11643;BME280;5877;50.930;6.918;2023-03-03T06:04:48;101649.84;;;0.28;76.61
11643;BME280;5877;50.930;6.918;2023-03-03T06:09:40;101470.44;;;-0.64;75.97
11643;BME280;5877;50.930;6.918;2023-03-03T06:14:32;101424.75;;;-1.07;76.71
11643;BME280;5877;50.930;6.918;2023-03-03T06:19:24;101735.84;;;0.73;76.44
11643;BME280;5877;50.930;6.918;2023-03-03T06:24:16;101507.81;;;-0.47;75.94
11643;BME280;5877;50.930;6.918;2023-03-03T06:29:08;101595.53;;;0.18;75.89
11643;BME280;5877;50.930;6.918;2023-03-03T06:34:00;101465.28;;;-0.64;75.37
11643;BME280;5877;50.930;6.918;2023-03-03T06:38:51;101785.53;;;1.31;75.51
11643;BME280;5877;50.930;6.918;2023-03-03T06:43:43;101460.34;;;-0.89;75.27
11643;BME280;5877;50.930;6.918;2023-03-03T06:48:35;101571.44;;;-0.25;76.18
11643;BME280;5877;50.930;6.918;2023-03-03T06:53:27;101725.97;;;0.78;75.61
11643;BME280;5877;50.930;6.918;2023-03-03T06:58:22;101837.59;;;1.38;75.69
11643;BME280;5877;50.930;6.918;2023-03-03T07:03:17;101835.00;;;1.38;75.57
11643;BME280;5877;50.930;6.918;2023-03-03T07:08:16;101534.50;;;-0.71;75.23
11643;BME280;5877;50.930;6.918;2023-03-03T07:13:22;101818.19;;;1.43;74.93
11643;BME280;5877;50.930;6.918;2023-03-03T07:18:58;101802.91;;;1.40;74.30
11643;BME280;5877;50.930;6.918;2023-03-03T07:23:52;101866.06;;;1.70;74.34
11643;BME280;5877;50.930;6.918;2023-03-03T07:28:52;101577.66;;;-0.06;74.13
11643;BME280;5877;50.930;6.918;2023-03-03T07:33:45;101737.69;;;0.93;74.19
11643;BME280;5877;50.930;6.918;2023-03-03T07:38:40;101851.41;;;1.59;74.22
11643;BME280;5877;50.930;6.918;2023-03-03T07:43:35;101858.59;;;1.55;74.21
11643;BME280;5877;50.930;6.918;2023-03-03T07:48:36;101723.38;;;0.89;73.34
11643;BME280;5877;50.930;6.918;2023-03-03T07:53:29;101866.00;;;1.92;73.64
11643;BME280;5877;50.930;6.918;2023-03-03T07:58:39;101843.81;;;1.78;73.16
11643;BME280;5877;50.930;6.918;2023-03-03T08:03:34;101638.63;;;0.72;72.26
11643;BME280;5877;50.930;6.918;2023-03-03T08:08:29;101728.06;;;1.27;71.30
11643;BME280;5877;50.930;6.918;2023-03-03T08:13:36;101804.78;;;1.70;71.62
11643;BME280;5877;50.930;6.918;2023-03-03T08:23:26;101892.84;;;2.12;71.17
11643;BME280;5877;50.930;6.918;2023-03-03T08:28:19;101409.16;;;-1.05;71.24
11643;BME280;5877;50.930;6.918;2023-03-03T08:33:12;101706.03;;;1.12;70.75
11643;BME280;5877;50.930;6.918;2023-03-03T08:38:05;101911.06;;;2.42;69.78
11643;BME280;5877;50.930;6.918;2023-03-03T08:42:57;101947.59;;;2.39;69.86
11643;BME280;5877;50.930;6.918;2023-03-03T08:47:49;101927.38;;;2.33;70.35
11643;BME280;5877;50.930;6.918;2023-03-03T08:52:40;101773.41;;;1.63;69.72
11643;BME280;5877;50.930;6.918;2023-03-03T08:57:32;101789.16;;;1.92;68.84
11643;BME280;5877;50.930;6.918;2023-03-03T09:02:24;101491.00;;;0.13;68.50
11643;BME280;5877;50.930;6.918;2023-03-03T09:07:16;101741.47;;;1.95;68.13
11643;BME280;5877;50.930;6.918;2023-03-03T09:12:57;101928.28;;;3.04;67.08
11643;BME280;5877;50.930;6.918;2023-03-03T09:17:34;101648.09;;;1.36;67.34
11643;BME280;5877;50.930;6.918;2023-03-03T09:22:28;101659.38;;;1.55;66.14
11643;BME280;5877;50.930;6.918;2023-03-03T09:27:33;101884.66;;;2.79;65.83
11643;BME280;5877;50.930;6.918;2023-03-03T09:32:32;101944.97;;;3.51;65.99
11643;BME280;5877;50.930;6.918;2023-03-03T09:37:33;101694.63;;;1.98;65.84
11643;BME280;5877;50.930;6.918;2023-03-03T09:42:38;101943.56;;;3.97;64.06
11643;BME280;5877;50.930;6.918;2023-03-03T09:48:01;101852.19;;;3.24;64.00
11643;BME280;5877;50.930;6.918;2023-03-03T10:09:02;101928.38;;;3.83;62.77
11643;BME280;5877;50.930;6.918;2023-03-03T10:24:29;101821.22;;;3.62;61.55
11643;BME280;5877;50.930;6.918;2023-03-03T10:29:44;101806.31;;;4.02;60.34
11643;BME280;5877;50.930;6.918;2023-03-03T10:50:33;101963.56;;;5.29;59.25
11643;BME280;5877;50.930;6.918;2023-03-03T10:55:35;101936.22;;;5.42;58.49
11643;BME280;5877;50.930;6.918;2023-03-03T11:00:48;101967.94;;;5.83;57.36
11643;BME280;5877;50.930;6.918;2023-03-03T11:36:39;101945.56;;;6.26;55.68
11643;BME280;5877;50.930;6.918;2023-03-03T11:41:40;101960.97;;;6.19;55.86
11643;BME280;5877;50.930;6.918;2023-03-03T11:46:46;101954.97;;;6.62;54.48
11643;BME280;5877;50.930;6.918;2023-03-03T12:01:43;101939.63;;;7.19;53.71
11643;BME280;5877;50.930;6.918;2023-03-03T12:17:15;101746.66;;;6.75;51.04
11643;BME280;5877;50.930;6.918;2023-03-03T12:37:46;101802.47;;;6.48;52.04
11643;BME280;5877;50.930;6.918;2023-03-03T12:48:43;101512.34;;;5.38;50.25
11643;BME280;5877;50.930;6.918;2023-03-03T12:54:03;101836.50;;;7.15;50.69
11643;BME280;5877;50.930;6.918;2023-03-03T13:04:04;101914.78;;;7.57;51.35
11643;BME280;5877;50.930;6.918;2023-03-03T13:20:33;101650.91;;;5.83;51.22
11643;BME280;5877;50.930;6.918;2023-03-03T13:30:40;101584.97;;;5.83;50.30
11643;BME280;5877;50.930;6.918;2023-03-03T13:35:44;101894.09;;;7.72;49.98
11643;BME280;5877;50.930;6.918;2023-03-03T13:40:45;101902.22;;;7.61;50.37
11643;BME280;5877;50.930;6.918;2023-03-03T13:50:52;101551.63;;;5.18;51.31
11643;BME280;5877;50.930;6.918;2023-03-03T14:00:57;101837.69;;;7.37;51.44
11643;BME280;5877;50.930;6.918;2023-03-03T14:06:02;101643.88;;;5.76;51.82
11643;BME280;5877;50.930;6.918;2023-03-03T14:16:22;101895.59;;;6.12;54.49
11643;BME280;5877;50.930;6.918;2023-03-03T14:21:45;101799.28;;;5.14;55.35
11643;BME280;5877;50.930;6.918;2023-03-03T14:27:18;101859.44;;;5.29;57.46
11643;BME280;5877;50.930;6.918;2023-03-03T14:32:23;101854.94;;;5.48;57.14
11643;BME280;5877;50.930;6.918;2023-03-03T14:37:44;101784.94;;;5.10;57.24
11643;BME280;5877;50.930;6.918;2023-03-03T14:42:38;101864.47;;;5.75;57.52
11643;BME280;5877;50.930;6.918;2023-03-03T14:47:36;101775.19;;;5.30;57.24
11643;BME280;5877;50.930;6.918;2023-03-03T14:52:32;101817.78;;;5.29;57.95
11643;BME280;5877;50.930;6.918;2023-03-03T15:03:02;101426.72;;;2.50;58.22
11643;BME280;5877;50.930;6.918;2023-03-03T15:12:54;101684.66;;;3.88;59.79
11643;BME280;5877;50.930;6.918;2023-03-03T15:17:56;101844.00;;;5.00;59.87
11643;BME280;5877;50.930;6.918;2023-03-03T15:33:31;101678.81;;;3.86;60.78
11643;BME280;5877;50.930;6.918;2023-03-03T15:38:33;101804.09;;;4.54;60.79
11643;BME280;5877;50.930;6.918;2023-03-03T15:43:36;101847.94;;;4.76;60.83
11643;BME280;5877;50.930;6.918;2023-03-03T16:04:17;101843.22;;;4.06;63.24
11643;BME280;5877;50.930;6.918;2023-03-03T16:09:22;101777.09;;;3.62;64.05
11643;BME280;5877;50.930;6.918;2023-03-03T16:20:21;101604.38;;;2.34;64.21
11643;BME280;5877;50.930;6.918;2023-03-03T16:35:43;101808.06;;;3.24;66.10
11643;BME280;5877;50.930;6.918;2023-03-03T16:40:54;101853.06;;;3.54;66.71
11643;BME280;5877;50.930;6.918;2023-03-03T16:45:46;101676.50;;;2.38;66.46
11643;BME280;5877;50.930;6.918;2023-03-03T16:51:02;101873.81;;;3.44;66.82
11643;BME280;5877;50.930;6.918;2023-03-03T17:01:13;101531.81;;;1.04;66.89
11643;BME280;5877;50.930;6.918;2023-03-03T17:11:10;101893.19;;;3.00;69.22
11643;BME280;5877;50.930;6.918;2023-03-03T17:16:20;101892.47;;;2.88;69.68
11643;BME280;5877;50.930;6.918;2023-03-03T17:21:24;101901.28;;;2.76;70.38
11643;BME280;5877;50.930;6.918;2023-03-03T17:26:50;101902.44;;;2.63;71.11
11643;BME280;5877;50.930;6.918;2023-03-03T17:32:18;101875.88;;;2.40;71.39
11643;BME280;5877;50.930;6.918;2023-03-03T17:42:36;101907.66;;;2.21;72.95
11643;BME280;5877;50.930;6.918;2023-03-03T18:08:28;101852.06;;;1.40;74.27
11643;BME280;5877;50.930;6.918;2023-03-03T18:13:34;101928.50;;;1.87;74.80
11643;BME280;5877;50.930;6.918;2023-03-03T18:23:38;101750.41;;;0.63;74.84
11643;BME280;5877;50.930;6.918;2023-03-03T18:28:45;101780.13;;;0.69;75.79
11643;BME280;5877;50.930;6.918;2023-03-03T18:38:55;101817.25;;;0.68;75.47
11643;BME280;5877;50.930;6.918;2023-03-03T18:43:51;101620.41;;;-0.59;75.84
11643;BME280;5877;50.930;6.918;2023-03-03T18:48:48;101940.22;;;1.37;76.07
11643;BME280;5877;50.930;6.918;2023-03-03T18:53:59;101808.06;;;0.52;76.14
11643;BME280;5877;50.930;6.918;2023-03-03T18:58:52;101877.25;;;0.82;76.34
11643;BME280;5877;50.930;6.918;2023-03-03T19:08:45;101951.06;;;1.20;76.38
11643;BME280;5877;50.930;6.918;2023-03-03T19:13:44;101834.94;;;0.39;76.83
11643;BME280;5877;50.930;6.918;2023-03-03T19:23:51;101965.38;;;1.02;77.41
11643;BME280;5877;50.930;6.918;2023-03-03T19:34:06;101431.50;;;-2.46;77.76
11643;BME280;5877;50.930;6.918;2023-03-03T19:54:51;101809.81;;;-0.28;77.98
11643;BME280;5877;50.930;6.918;2023-03-03T19:59:52;101773.34;;;-0.35;77.79
11643;BME280;5877;50.930;6.918;2023-03-03T20:15:08;101964.53;;;0.90;77.19
11643;BME280;5877;50.930;6.918;2023-03-03T20:20:32;101969.50;;;0.93;77.37
11643;BME280;5877;50.930;6.918;2023-03-03T20:25:39;101975.03;;;1.11;77.07
11643;BME280;5877;50.930;6.918;2023-03-03T20:35:48;101968.34;;;1.30;75.94
11643;BME280;5877;50.930;6.918;2023-03-03T20:46:27;101720.38;;;0.06;74.37
11643;BME280;5877;50.930;6.918;2023-03-03T20:56:40;101914.56;;;1.56;72.95
11643;BME280;5877;50.930;6.918;2023-03-03T21:06:48;101637.81;;;-0.05;72.18
11643;BME280;5877;50.930;6.918;2023-03-03T21:11:42;101984.13;;;2.36;71.85
11643;BME280;5877;50.930;6.918;2023-03-03T21:16:34;101759.56;;;0.67;71.44
11643;BME280;5877;50.930;6.918;2023-03-03T21:21:28;101608.91;;;0.23;70.65
11643;BME280;5877;50.930;6.918;2023-03-03T21:26:47;101984.88;;;2.69;70.92
11643;BME280;5877;50.930;6.918;2023-03-03T21:31:51;101723.19;;;1.13;69.97
11643;BME280;5877;50.930;6.918;2023-03-03T21:36:47;101832.44;;;1.70;70.70
11643;BME280;5877;50.930;6.918;2023-03-03T21:46:42;101568.88;;;0.29;70.10
11643;BME280;5877;50.930;6.918;2023-03-03T21:51:34;101881.75;;;2.42;69.65
11643;BME280;5877;50.930;6.918;2023-03-03T21:56:26;101887.19;;;2.39;69.62
11643;BME280;5877;50.930;6.918;2023-03-03T22:01:17;101908.31;;;2.65;69.53
11643;BME280;5877;50.930;6.918;2023-03-03T22:06:09;101977.09;;;2.89;70.11
11643;BME280;5877;50.930;6.918;2023-03-03T22:11:01;101743.00;;;1.56;70.11
11643;BME280;5877;50.930;6.918;2023-03-03T22:15:53;101967.72;;;2.98;70.31
11643;BME280;5877;50.930;6.918;2023-03-03T22:20:46;101653.00;;;1.18;70.04
11643;BME280;5877;50.930;6.918;2023-03-03T22:25:38;101781.63;;;2.10;70.01
11643;BME280;5877;50.930;6.918;2023-03-03T22:30:30;101832.84;;;2.27;69.56
11643;BME280;5877;50.930;6.918;2023-03-03T22:35:22;101962.31;;;3.11;70.02
11643;BME280;5877;50.930;6.918;2023-03-03T22:40:14;101560.81;;;0.54;69.91
11643;BME280;5877;50.930;6.918;2023-03-03T22:45:06;101959.53;;;3.03;69.52
11643;BME280;5877;50.930;6.918;2023-03-03T22:50:01;101930.66;;;2.86;69.56
11643;BME280;5877;50.930;6.918;2023-03-03T22:54:55;101636.88;;;0.93;69.50
11643;BME280;5877;50.930;6.918;2023-03-03T22:59:48;101878.78;;;2.46;69.98
11643;BME280;5877;50.930;6.918;2023-03-03T23:04:40;101559.09;;;0.44;69.66
11643;BME280;5877;50.930;6.918;2023-03-03T23:09:32;101976.88;;;3.02;69.72
11643;BME280;5877;50.930;6.918;2023-03-03T23:14:24;101982.13;;;3.12;70.15
11643;BME280;5877;50.930;6.918;2023-03-03T23:19:16;101879.28;;;2.40;69.94
11643;BME280;5877;50.930;6.918;2023-03-03T23:24:08;101987.03;;;3.15;69.50
11643;BME280;5877;50.930;6.918;2023-03-03T23:36:49;101868.13;;;2.80;68.61
11643;BME280;5877;50.930;6.918;2023-03-03T23:41:43;101795.16;;;2.44;68.47
11643;BME280;5877;50.930;6.918;2023-03-03T23:46:35;101970.00;;;3.62;68.09
11643;BME280;5877;50.930;6.918;2023-03-03T23:51:28;101970.31;;;3.69;68.11
11643;BME280;5877;50.930;6.918;2023-03-03T23:56:20;101987.66;;;3.68;68.12
